createdAt,value
2023-02-17T00:01:33.456Z,5.81
2023-02-17T00:06:54.590Z,5.80
2023-02-17T00:12:15.221Z,5.77
2023-02-17T00:17:35.966Z,5.78
2023-02-17T00:22:56.666Z,5.75
2023-02-17T00:28:17.307Z,5.69
2023-02-17T00:33:38.187Z,5.76
2023-02-17T00:38:59.072Z,5.74
2023-02-17T00:44:23.754Z,5.79
2023-02-17T00:49:45.874Z,5.79
2023-02-17T00:55:06.724Z,5.61
2023-02-17T01:00:27.526Z,5.53
2023-02-17T01:05:49.185Z,5.52
2023-02-17T01:11:21.450Z,5.53
2023-02-17T01:16:47.111Z,5.46
2023-02-17T01:22:07.856Z,5.39
2023-02-17T01:27:28.436Z,5.39
2023-02-17T01:32:49.272Z,5.36
2023-02-17T01:38:09.952Z,5.32
2023-02-17T01:43:30.922Z,5.26
2023-02-17T01:48:51.894Z,5.27
2023-02-17T01:54:24.388Z,5.27
2023-02-17T01:59:45.881Z,5.29
2023-02-17T02:05:06.656Z,5.27
2023-02-17T02:10:27.294Z,5.25
2023-02-17T02:15:57.908Z,5.28
2023-02-17T02:22:03.829Z,5.37
2023-02-17T02:27:42.082Z,5.40
2023-02-17T02:33:08.925Z,5.44
2023-02-17T02:38:35.073Z,5.46
2023-02-17T02:43:56.542Z,5.40
2023-02-17T02:49:17.791Z,5.37
2023-02-17T02:55:01.653Z,5.38
2023-02-17T03:00:55.114Z,5.31
2023-02-17T03:06:26.532Z,5.43
2023-02-17T03:11:49.775Z,5.54
2023-02-17T03:17:11.624Z,5.47
2023-02-17T03:22:40.560Z,5.44
2023-02-17T03:28:02.091Z,5.41
2023-02-17T03:33:23.101Z,5.50
2023-02-17T03:38:46.293Z,5.58
2023-02-17T03:44:06.898Z,5.59
2023-02-17T03:49:27.630Z,5.67
2023-02-17T03:54:48.241Z,5.74
2023-02-17T04:00:09.566Z,5.76
2023-02-17T04:05:36.475Z,5.74
2023-02-17T04:11:00.517Z,5.82
2023-02-17T04:16:21.639Z,5.75
2023-02-17T04:21:42.324Z,5.70
2023-02-17T04:27:06.569Z,5.71
2023-02-17T04:32:27.481Z,5.75
2023-02-17T04:37:48.162Z,5.78
2023-02-17T04:43:09.656Z,5.73
2023-02-17T04:48:30.508Z,5.76
2023-02-17T04:53:51.364Z,5.79
2023-02-17T04:59:12.249Z,5.80
2023-02-17T05:04:32.991Z,5.75
2023-02-17T05:09:54.314Z,5.86
2023-02-17T05:15:15.274Z,5.83
2023-02-17T05:20:36.168Z,5.85
2023-02-17T05:25:57.133Z,5.86
2023-02-17T05:31:18.608Z,5.95
2023-02-17T05:36:39.563Z,6.08
2023-02-17T05:42:00.489Z,6.17
2023-02-17T05:47:22.086Z,6.29
2023-02-17T05:52:42.668Z,6.39
2023-02-17T05:58:03.412Z,6.43
2023-02-17T06:03:24.104Z,6.45
2023-02-17T06:08:44.828Z,6.48
2023-02-17T06:14:05.500Z,6.51
2023-02-17T06:19:26.627Z,6.53
2023-02-17T06:24:47.642Z,6.56
2023-02-17T06:30:09.337Z,6.60
2023-02-17T06:35:30.108Z,6.62
2023-02-17T06:40:50.815Z,6.62
2023-02-17T06:46:11.786Z,6.67
2023-02-17T06:51:32.731Z,6.70
2023-02-17T06:56:53.370Z,6.70
2023-02-17T07:02:14.843Z,6.71
2023-02-17T07:07:35.519Z,6.75
2023-02-17T07:12:56.226Z,6.74
2023-02-17T07:18:16.881Z,6.76
2023-02-17T07:23:39.015Z,6.77
2023-02-17T07:29:01.816Z,6.79
2023-02-17T07:34:22.759Z,6.81
2023-02-17T07:39:43.484Z,6.83
2023-02-17T07:45:04.695Z,6.85
2023-02-17T07:50:25.464Z,6.90
2023-02-17T07:55:46.304Z,6.93
2023-02-17T08:01:08.215Z,6.97
2023-02-17T08:06:29.777Z,7.04
2023-02-17T08:12:09.066Z,7.13
2023-02-17T08:17:30.247Z,7.21
2023-02-17T08:22:50.803Z,7.27
2023-02-17T08:28:12.276Z,7.30
2023-02-17T08:33:33.376Z,7.36
2023-02-17T08:38:54.496Z,7.37
2023-02-17T08:44:18.777Z,7.40
2023-02-17T08:49:40.493Z,7.43
2023-02-17T08:55:01.628Z,7.47
2023-02-17T09:00:22.791Z,7.48
2023-02-17T09:05:43.881Z,7.53
2023-02-17T09:11:05.937Z,7.55
2023-02-17T09:16:27.666Z,7.57
2023-02-17T09:21:48.748Z,7.58
2023-02-17T09:27:10.552Z,7.59
2023-02-17T09:32:31.739Z,7.61
2023-02-17T09:37:53.169Z,7.67
2023-02-17T09:43:17.384Z,7.73
2023-02-17T09:48:39.709Z,7.75
2023-02-17T09:54:20.117Z,7.74
2023-02-17T09:59:47.074Z,7.76
2023-02-17T10:05:11.487Z,7.82
2023-02-17T10:10:39.949Z,7.84
2023-02-17T10:16:07.162Z,7.87
2023-02-17T10:29:56.987Z,7.84
2023-02-17T10:35:27.699Z,7.87
2023-02-17T10:40:50.820Z,7.87
2023-02-17T10:46:15.639Z,7.88
2023-02-17T10:51:37.062Z,7.88
2023-02-17T10:57:01.332Z,7.92
2023-02-17T11:10:32.772Z,7.96
2023-02-17T11:15:53.824Z,8.01
2023-02-17T11:21:14.979Z,8.13
2023-02-17T11:26:36.457Z,8.20
2023-02-17T11:32:11.166Z,8.25
2023-02-17T11:37:32.962Z,8.23
2023-02-17T11:42:59.014Z,8.22
2023-02-17T11:48:35.941Z,8.26
2023-02-17T11:54:25.053Z,8.22
2023-02-17T12:00:11.008Z,8.21
2023-02-17T12:06:00.642Z,8.21
2023-02-17T12:11:24.302Z,8.25
2023-02-17T12:17:06.602Z,8.22
2023-02-17T12:22:36.195Z,8.23
2023-02-17T12:28:05.979Z,8.25
2023-02-17T12:33:47.961Z,8.22
2023-02-17T12:39:18.321Z,8.23
2023-02-17T12:44:46.107Z,8.26
2023-02-17T12:50:20.193Z,8.31
2023-02-17T12:55:48.845Z,8.39
2023-02-17T13:01:19.095Z,8.44
2023-02-17T13:06:43.230Z,8.50
2023-02-17T13:12:10.977Z,8.51
2023-02-17T13:17:51.828Z,8.55
2023-02-17T13:23:14.928Z,8.56
2023-02-17T13:28:39.001Z,8.58
2023-02-17T13:33:59.863Z,8.58
2023-02-17T13:39:26.968Z,8.59
2023-02-17T13:44:51.413Z,8.58
2023-02-17T13:50:34.738Z,8.52
2023-02-17T13:56:09.477Z,8.50
2023-02-17T14:01:30.300Z,8.49
2023-02-17T14:06:52.890Z,8.51
2023-02-17T14:12:23.544Z,8.54
2023-02-17T14:17:44.886Z,8.58
2023-02-17T14:23:11.680Z,8.62
2023-02-17T14:28:32.718Z,8.65
2023-02-17T14:34:01.646Z,8.72
2023-02-17T14:39:22.426Z,8.78
2023-02-17T14:44:43.259Z,8.91
2023-02-17T14:50:04.078Z,8.91
2023-02-17T14:55:31.856Z,8.90
2023-02-17T15:00:52.839Z,8.92
2023-02-17T15:06:29.301Z,8.94
2023-02-17T15:11:51.749Z,8.95
2023-02-17T15:17:16.231Z,8.97
2023-02-17T15:22:41.602Z,8.96
2023-02-17T15:28:02.524Z,8.97
2023-02-17T15:33:24.792Z,8.98
2023-02-17T15:38:45.597Z,8.99
2023-02-17T15:44:12.444Z,9.00
2023-02-17T15:49:33.205Z,9.03
2023-02-17T15:54:53.944Z,9.04
2023-02-17T16:00:25.613Z,9.07
2023-02-17T16:05:46.516Z,9.08
2023-02-17T16:11:12.010Z,9.11
2023-02-17T16:16:33.704Z,9.14
2023-02-17T16:21:54.832Z,9.12
2023-02-17T16:27:17.090Z,9.13
2023-02-17T16:32:37.960Z,9.15
2023-02-17T16:38:01.970Z,9.14
2023-02-17T16:43:26.913Z,9.15
2023-02-17T16:48:47.841Z,9.14
2023-02-17T16:54:10.641Z,9.17
2023-02-17T16:59:31.442Z,9.17
2023-02-17T17:04:53.825Z,9.20
2023-02-17T17:10:22.375Z,9.23
2023-02-17T17:15:45.321Z,9.27
2023-02-17T17:21:06.761Z,9.29
2023-02-17T17:26:30.949Z,9.29
2023-02-17T17:31:51.675Z,9.29
2023-02-17T17:37:12.707Z,9.28
2023-02-17T17:42:33.676Z,9.29
2023-02-17T17:47:55.601Z,9.29
2023-02-17T17:53:16.313Z,9.31
2023-02-17T17:58:39.062Z,9.29
2023-02-17T18:04:01.229Z,9.28
2023-02-17T18:09:32.015Z,9.29
2023-02-17T18:14:54.774Z,9.32
2023-02-17T18:20:16.070Z,9.36
2023-02-17T18:25:38.185Z,9.38
2023-02-17T18:31:00.642Z,9.41
2023-02-17T18:36:27.049Z,9.46
2023-02-17T18:41:48.194Z,9.50
2023-02-17T18:47:10.322Z,9.52
2023-02-17T18:52:31.561Z,9.54
2023-02-17T18:57:52.320Z,9.57
2023-02-17T19:03:13.250Z,9.59
2023-02-17T19:08:33.971Z,9.59
2023-02-17T19:13:54.786Z,9.60
2023-02-17T19:19:15.559Z,9.64
2023-02-17T19:24:39.236Z,9.68
2023-02-17T19:30:00.391Z,9.74
2023-02-17T19:35:21.033Z,9.77
2023-02-17T19:40:41.929Z,9.80
2023-02-17T19:46:03.057Z,9.81
2023-02-17T19:51:25.111Z,9.85
2023-02-17T19:56:46.024Z,9.87
2023-02-17T20:02:06.925Z,9.90
2023-02-17T20:07:27.877Z,9.92
2023-02-17T20:12:48.498Z,9.94
2023-02-17T20:18:09.753Z,9.97
2023-02-17T20:23:31.239Z,10.00
2023-02-17T20:28:52.630Z,10.02
2023-02-17T20:34:32.002Z,10.06
2023-02-17T20:39:53.012Z,10.11
2023-02-17T20:45:13.755Z,10.10
2023-02-17T20:50:35.187Z,10.12
2023-02-17T20:55:57.004Z,10.13
2023-02-17T21:01:18.349Z,10.12
2023-02-17T21:06:41.403Z,10.12
2023-02-17T21:12:03.233Z,10.13
2023-02-17T21:17:24.010Z,10.11
2023-02-17T21:22:45.377Z,10.12
2023-02-17T21:28:06.503Z,10.11
2023-02-17T21:33:27.116Z,10.10
2023-02-17T21:38:48.064Z,10.08
2023-02-17T21:44:30.563Z,10.05
2023-02-17T21:49:54.542Z,10.03
2023-02-17T21:55:15.443Z,10.00
2023-02-17T22:00:36.122Z,9.97
2023-02-17T22:05:57.459Z,9.95
2023-02-17T22:11:21.048Z,9.96
2023-02-17T22:16:42.706Z,9.93
2023-02-17T22:22:04.377Z,9.92
2023-02-17T22:27:25.632Z,9.92
2023-02-17T22:32:47.089Z,9.91
2023-02-17T22:38:08.068Z,9.87
2023-02-17T22:43:28.985Z,9.78
2023-02-17T22:48:51.657Z,9.71
2023-02-17T22:54:12.470Z,9.64
2023-02-17T22:59:33.095Z,9.54
2023-02-17T23:04:53.941Z,9.47
2023-02-17T23:10:14.900Z,9.48
2023-02-17T23:15:40.029Z,9.47
2023-02-17T23:21:06.652Z,9.40
2023-02-17T23:26:27.369Z,9.35
2023-02-17T23:31:48.197Z,9.31
2023-02-17T23:37:08.989Z,9.28
2023-02-17T23:42:29.876Z,9.25
2023-02-17T23:47:50.887Z,9.21
2023-02-17T23:53:11.515Z,9.16
2023-02-17T23:58:33.496Z,9.09
